createdAt,value
2023-03-26T00:00:53.875Z,78.87
2023-03-26T00:01:53.957Z,78.97
2023-03-26T00:02:53.885Z,78.87
2023-03-26T00:03:53.889Z,78.87
2023-03-26T00:04:53.851Z,78.87
2023-03-26T00:05:53.975Z,78.94
2023-03-26T00:06:53.863Z,79.08
2023-03-26T00:07:53.814Z,79.04
2023-03-26T00:08:53.799Z,79.08
2023-03-26T00:09:53.818Z,78.87
2023-03-26T00:10:53.767Z,78.87
2023-03-26T00:11:53.781Z,78.77
2023-03-26T00:12:53.801Z,78.87
2023-03-26T00:13:53.762Z,79.18
2023-03-26T00:14:53.783Z,78.97
2023-03-26T00:15:53.883Z,78.97
2023-03-26T00:16:53.857Z,78.97
2023-03-26T00:17:53.719Z,79.28
2023-03-26T00:18:53.703Z,79.08
2023-03-26T00:19:53.705Z,79.49
2023-03-26T00:20:53.696Z,79.18
2023-03-26T00:21:53.661Z,79.18
2023-03-26T00:22:53.667Z,79.28
2023-03-26T00:23:53.742Z,79.28
2023-03-26T00:24:53.650Z,79.28
2023-03-26T00:25:53.788Z,79.38
2023-03-26T00:26:53.716Z,79.38
2023-03-26T00:27:53.612Z,79.28
2023-03-26T00:28:54.707Z,79.28
2023-03-26T00:29:53.620Z,79.28
2023-03-26T00:30:53.604Z,79.38
2023-03-26T00:31:53.578Z,79.69
2023-03-26T00:32:54.170Z,79.49
2023-03-26T00:33:53.601Z,79.69
2023-03-26T00:34:54.126Z,79.59
2023-03-26T00:35:53.928Z,79.49
2023-03-26T00:36:53.511Z,79.28
2023-03-26T00:37:53.514Z,79.38
2023-03-26T00:38:53.582Z,79.38
2023-03-26T00:39:53.478Z,79.49
2023-03-26T00:40:53.533Z,79.49
2023-03-26T00:41:53.476Z,79.28
2023-03-26T00:42:53.545Z,79.38
2023-03-26T00:43:53.456Z,79.28
2023-03-26T00:44:53.453Z,79.18
2023-03-26T00:45:53.717Z,79.32
2023-03-26T00:46:53.444Z,79.52
2023-03-26T00:47:53.525Z,79.42
2023-03-26T00:48:53.568Z,79.42
2023-03-26T00:49:53.388Z,79.63
2023-03-26T00:50:53.392Z,79.63
2023-03-26T00:51:53.348Z,79.63
2023-03-26T00:52:53.384Z,79.73
2023-03-26T00:53:53.336Z,79.63
2023-03-26T00:54:53.372Z,79.73
2023-03-26T00:55:53.491Z,79.93
2023-03-26T00:56:53.360Z,79.93
2023-03-26T00:57:53.301Z,79.83
2023-03-26T00:58:53.441Z,79.93
2023-03-26T00:59:53.275Z,79.73
2023-03-26T01:00:53.290Z,79.83
2023-03-26T01:01:53.317Z,79.83
2023-03-26T01:02:53.357Z,80.04
2023-03-26T01:04:06.898Z,80.04
2023-03-26T01:04:53.281Z,80.07
2023-03-26T01:05:53.452Z,79.93
2023-03-26T01:06:53.246Z,79.97
2023-03-26T01:07:53.214Z,80.07
2023-03-26T01:08:53.191Z,80.07
2023-03-26T01:09:53.223Z,80.18
2023-03-26T01:10:53.194Z,80.38
2023-03-26T01:11:53.152Z,80.38
2023-03-26T01:12:53.157Z,80.79
2023-03-26T01:13:53.185Z,81.00
2023-03-26T01:14:53.163Z,80.69
2023-03-26T01:15:53.443Z,81.10
2023-03-26T01:16:53.164Z,80.58
2023-03-26T01:17:53.200Z,80.49
2023-03-26T01:18:53.088Z,80.49
2023-03-26T01:19:53.084Z,80.49
2023-03-26T01:20:53.077Z,80.49
2023-03-26T01:21:53.050Z,80.90
2023-03-26T01:22:53.097Z,81.00
2023-03-26T01:23:53.039Z,80.90
2023-03-26T01:24:53.473Z,80.90
2023-03-26T01:25:53.246Z,80.69
2023-03-26T01:26:53.039Z,80.79
2023-03-26T01:27:53.037Z,80.79
2023-03-26T01:28:53.013Z,80.79
2023-03-26T01:29:52.986Z,81.10
2023-03-26T01:30:52.967Z,80.90
2023-03-26T01:31:52.982Z,81.10
2023-03-26T01:32:53.256Z,81.10
2023-03-26T01:33:52.964Z,81.20
2023-03-26T01:34:52.953Z,81.20
2023-03-26T01:35:53.376Z,81.20
2023-03-26T01:36:53.063Z,81.62
2023-03-26T01:37:52.931Z,81.51
2023-03-26T01:38:52.939Z,81.20
2023-03-26T01:39:52.907Z,81.20
2023-03-26T01:40:52.895Z,81.20
2023-03-26T01:41:52.856Z,81.20
2023-03-26T01:42:52.866Z,81.00
2023-03-26T01:43:52.871Z,80.90
2023-03-26T01:44:52.850Z,81.20
2023-03-26T01:45:52.971Z,81.20
2023-03-26T01:46:52.921Z,81.20
2023-03-26T01:47:52.879Z,81.51
2023-03-26T01:48:52.834Z,81.20
2023-03-26T01:49:52.786Z,81.00
2023-03-26T01:50:52.791Z,81.92
2023-03-26T01:51:52.781Z,81.82
2023-03-26T01:52:52.773Z,82.13
2023-03-26T01:53:52.792Z,81.37
2023-03-26T01:54:52.746Z,80.96
2023-03-26T01:55:52.974Z,80.65
2023-03-26T01:56:53.182Z,80.76
2023-03-26T01:57:52.723Z,81.10
2023-03-26T01:58:52.750Z,81.71
2023-03-26T01:59:52.711Z,81.51
2023-03-26T02:00:52.717Z,81.16
2023-03-26T02:01:52.836Z,81.48
2023-03-26T02:02:52.765Z,81.48
2023-03-26T02:03:52.679Z,81.27
2023-03-26T02:04:52.655Z,81.57
2023-03-26T02:05:52.954Z,80.86
2023-03-26T02:06:52.619Z,80.65
2023-03-26T02:07:52.598Z,80.45
2023-03-26T02:08:52.616Z,80.86
2023-03-26T02:09:52.645Z,80.45
2023-03-26T02:10:52.627Z,81.27
2023-03-26T02:11:52.576Z,80.86
2023-03-26T02:12:52.555Z,81.48
2023-03-26T02:13:52.554Z,80.96
2023-03-26T02:14:52.573Z,81.06
2023-03-26T02:15:52.824Z,80.65
2023-03-26T02:16:52.564Z,81.06
2023-03-26T02:17:52.664Z,81.82
2023-03-26T02:18:52.512Z,81.88
2023-03-26T02:19:52.474Z,81.78
2023-03-26T02:20:52.476Z,81.68
2023-03-26T02:21:52.475Z,81.27
2023-03-26T02:22:52.573Z,81.48
2023-03-26T02:23:52.485Z,82.09
2023-03-26T02:24:52.432Z,81.06
2023-03-26T02:25:52.649Z,80.55
2023-03-26T02:26:52.411Z,80.55
2023-03-26T02:27:52.449Z,80.65
2023-03-26T02:28:52.705Z,80.65
2023-03-26T02:29:52.420Z,80.65
2023-03-26T02:30:52.367Z,80.76
2023-03-26T02:31:52.484Z,80.76
2023-03-26T02:32:52.470Z,80.86
2023-03-26T02:33:52.367Z,81.06
2023-03-26T02:34:52.369Z,81.48
2023-03-26T02:35:52.481Z,80.76
2023-03-26T02:36:52.365Z,80.76
2023-03-26T02:37:52.323Z,81.16
2023-03-26T02:38:52.326Z,80.76
2023-03-26T02:39:52.292Z,80.76
2023-03-26T02:40:52.302Z,80.96
2023-03-26T02:41:52.295Z,80.96
2023-03-26T02:42:52.248Z,81.71
2023-03-26T02:43:52.269Z,81.99
2023-03-26T02:44:52.269Z,81.57
2023-03-26T02:45:52.363Z,81.16
2023-03-26T02:46:52.231Z,81.88
2023-03-26T02:47:52.346Z,80.96
2023-03-26T02:48:52.186Z,80.96
2023-03-26T02:49:52.192Z,80.55
2023-03-26T02:50:52.163Z,81.16
2023-03-26T02:51:52.154Z,81.78
2023-03-26T02:52:52.193Z,81.43
2023-03-26T02:53:52.131Z,81.54
2023-03-26T02:54:52.125Z,81.43
2023-03-26T02:55:52.430Z,81.02
2023-03-26T02:56:52.143Z,80.92
2023-03-26T02:57:52.125Z,80.62
2023-03-26T02:58:52.145Z,80.51
2023-03-26T02:59:52.136Z,80.10
2023-03-26T03:00:52.122Z,80.35
2023-03-26T03:01:52.110Z,81.37
2023-03-26T03:02:52.126Z,81.16
2023-03-26T03:03:52.053Z,81.68
2023-03-26T03:04:52.064Z,81.78
2023-03-26T03:05:52.215Z,82.50
2023-03-26T03:06:52.004Z,81.88
2023-03-26T03:07:52.011Z,81.48
2023-03-26T03:08:52.011Z,81.48
2023-03-26T03:09:51.976Z,81.99
2023-03-26T03:10:51.957Z,82.05
2023-03-26T03:11:51.973Z,81.13
2023-03-26T03:12:51.952Z,81.34
2023-03-26T03:13:51.937Z,81.09
2023-03-26T03:14:51.933Z,80.58
2023-03-26T03:15:51.980Z,80.99
2023-03-26T03:16:51.957Z,80.47
2023-03-26T03:17:51.987Z,79.86
2023-03-26T03:18:51.872Z,79.55
2023-03-26T03:19:51.925Z,79.86
2023-03-26T03:20:51.904Z,79.59
2023-03-26T03:21:51.866Z,80.82
2023-03-26T03:22:51.843Z,81.23
2023-03-26T03:23:52.796Z,80.68
2023-03-26T03:24:51.885Z,80.21
2023-03-26T03:25:52.672Z,80.00
2023-03-26T03:26:51.798Z,80.92
2023-03-26T03:27:51.819Z,80.65
2023-03-26T03:28:51.776Z,81.48
2023-03-26T03:29:51.868Z,82.77
2023-03-26T03:30:51.857Z,81.85
2023-03-26T03:31:51.870Z,81.02
2023-03-26T03:32:51.827Z,82.05
2023-03-26T03:33:51.782Z,81.43
2023-03-26T03:34:52.470Z,80.41
2023-03-26T03:35:51.767Z,81.54
2023-03-26T03:36:51.817Z,81.23
2023-03-26T03:37:51.693Z,81.23
2023-03-26T03:38:51.697Z,81.29
2023-03-26T03:39:51.688Z,81.40
2023-03-26T03:40:51.669Z,80.27
2023-03-26T03:41:53.214Z,80.68
2023-03-26T03:42:51.664Z,80.47
2023-03-26T03:43:51.697Z,80.21
2023-03-26T03:44:51.654Z,81.02
2023-03-26T03:45:51.698Z,80.72
2023-03-26T03:46:52.567Z,80.21
2023-03-26T03:47:51.651Z,81.23
2023-03-26T03:48:51.851Z,80.62
2023-03-26T03:49:51.603Z,81.13
2023-03-26T03:50:52.184Z,81.23
2023-03-26T03:51:51.616Z,80.41
2023-03-26T03:52:51.802Z,82.26
2023-03-26T03:53:52.279Z,80.92
2023-03-26T03:54:51.798Z,81.64
2023-03-26T03:55:52.263Z,81.85
2023-03-26T03:56:51.569Z,82.26
2023-03-26T03:57:51.536Z,82.42
2023-03-26T03:58:51.570Z,82.22
2023-03-26T03:59:52.161Z,82.22
2023-03-26T04:00:51.498Z,82.22
2023-03-26T04:01:51.750Z,82.01
2023-03-26T04:02:51.548Z,82.63
2023-03-26T04:03:51.487Z,82.22
2023-03-26T04:04:51.658Z,82.22
2023-03-26T04:05:51.435Z,81.50
2023-03-26T04:06:52.234Z,81.74
2023-03-26T04:07:51.446Z,82.15
2023-03-26T04:08:51.406Z,81.74
2023-03-26T04:09:51.412Z,81.43
2023-03-26T04:10:51.356Z,81.23
2023-03-26T04:11:51.422Z,81.23
2023-03-26T04:12:51.370Z,81.34
2023-03-26T04:13:51.368Z,81.74
2023-03-26T04:14:51.317Z,81.85
2023-03-26T04:15:51.357Z,82.26
2023-03-26T04:16:51.343Z,81.95
2023-03-26T04:17:51.347Z,82.05
2023-03-26T04:18:51.306Z,82.05
2023-03-26T04:19:51.280Z,82.36
2023-03-26T04:20:51.388Z,82.67
2023-03-26T04:21:51.357Z,82.77
2023-03-26T04:22:51.234Z,83.01
2023-03-26T04:23:51.256Z,83.12
2023-03-26T04:24:51.506Z,83.22
2023-03-26T04:25:51.216Z,83.42
2023-03-26T04:26:51.224Z,83.94
2023-03-26T04:27:51.285Z,84.14
2023-03-26T04:28:51.187Z,84.55
2023-03-26T04:29:51.222Z,84.86
2023-03-26T04:30:51.175Z,85.17
2023-03-26T04:31:51.194Z,85.38
2023-03-26T04:32:51.205Z,85.82
2023-03-26T04:33:51.117Z,86.03
2023-03-26T04:34:51.661Z,86.54
2023-03-26T04:35:51.184Z,87.26
2023-03-26T04:36:51.126Z,87.26
2023-03-26T04:37:51.313Z,87.73
2023-03-26T04:38:51.142Z,87.37
2023-03-26T04:39:51.091Z,87.12
2023-03-26T04:40:51.070Z,87.26
2023-03-26T04:41:51.103Z,86.40
2023-03-26T04:42:51.089Z,86.85
2023-03-26T04:43:51.730Z,87.26
2023-03-26T04:44:51.036Z,86.75
2023-03-26T04:45:51.037Z,86.54
2023-03-26T04:46:51.007Z,86.95
2023-03-26T04:47:51.058Z,87.37
2023-03-26T04:48:51.011Z,87.57
2023-03-26T04:49:51.014Z,87.77
2023-03-26T04:50:50.960Z,87.46
2023-03-26T04:51:51.028Z,87.46
2023-03-26T04:52:51.069Z,87.67
2023-03-26T04:53:51.185Z,88.08
2023-03-26T04:54:50.971Z,88.29
2023-03-26T04:55:50.923Z,88.70
2023-03-26T04:56:51.787Z,88.90
2023-03-26T04:57:51.679Z,88.39
2023-03-26T04:58:50.866Z,87.98
2023-03-26T04:59:50.880Z,87.77
2023-03-26T05:00:50.867Z,87.61
2023-03-26T05:01:51.122Z,88.43
2023-03-26T05:02:50.871Z,89.36
2023-03-26T05:03:50.817Z,89.66
2023-03-26T05:04:50.788Z,89.97
2023-03-26T05:05:50.789Z,89.97
2023-03-26T05:06:50.767Z,89.04
2023-03-26T05:07:50.791Z,89.25
2023-03-26T05:08:50.808Z,89.70
2023-03-26T05:09:50.717Z,90.42
2023-03-26T05:10:50.743Z,91.04
2023-03-26T05:11:51.710Z,91.49
2023-03-26T05:12:50.672Z,91.70
2023-03-26T05:13:50.782Z,91.80
2023-03-26T05:14:50.674Z,91.70
2023-03-26T05:15:50.656Z,91.19
2023-03-26T05:16:50.766Z,91.39
2023-03-26T05:17:50.729Z,91.60
2023-03-26T05:18:50.653Z,91.80
2023-03-26T05:19:50.664Z,91.55
2023-03-26T05:20:50.629Z,91.45
2023-03-26T05:21:50.868Z,91.55
2023-03-26T05:22:50.605Z,91.66
2023-03-26T05:23:50.578Z,92.07
2023-03-26T05:24:50.614Z,91.70
2023-03-26T05:25:50.596Z,91.91
2023-03-26T05:26:53.217Z,92.21
2023-03-26T05:27:50.556Z,92.32
2023-03-26T05:28:50.529Z,92.11
2023-03-26T05:29:50.521Z,92.01
2023-03-26T05:30:50.593Z,92.11
2023-03-26T05:31:50.564Z,92.32
2023-03-26T05:32:50.759Z,92.42
2023-03-26T05:33:50.596Z,92.42
2023-03-26T05:34:50.479Z,92.48
2023-03-26T05:35:50.481Z,92.17
2023-03-26T05:36:50.432Z,92.58
2023-03-26T05:37:50.437Z,92.17
2023-03-26T05:38:50.441Z,91.76
2023-03-26T05:39:50.480Z,91.66
2023-03-26T05:40:50.403Z,91.41
2023-03-26T05:41:51.204Z,91.31
2023-03-26T05:42:50.424Z,91.10
2023-03-26T05:43:50.390Z,91.93
2023-03-26T05:44:50.353Z,91.51
2023-03-26T05:45:50.406Z,91.10
2023-03-26T05:46:50.343Z,90.80
2023-03-26T05:47:50.397Z,90.69
2023-03-26T05:48:50.355Z,90.75
2023-03-26T05:49:50.338Z,91.16
2023-03-26T05:50:50.302Z,91.27
2023-03-26T05:51:50.301Z,91.06
2023-03-26T05:52:50.323Z,91.47
2023-03-26T05:53:50.377Z,91.47
2023-03-26T05:54:50.277Z,91.27
2023-03-26T05:55:50.244Z,90.85
2023-03-26T05:56:50.258Z,90.44
2023-03-26T05:57:50.226Z,90.34
2023-03-26T05:58:51.855Z,90.38
2023-03-26T05:59:50.227Z,89.83
2023-03-26T06:00:50.254Z,90.44
2023-03-26T06:01:50.187Z,89.93
2023-03-26T06:02:50.240Z,89.52
2023-03-26T06:03:50.266Z,89.66
2023-03-26T06:04:50.245Z,89.76
2023-03-26T06:05:50.184Z,89.97
2023-03-26T06:06:50.145Z,89.97
2023-03-26T06:07:50.119Z,89.87
2023-03-26T06:09:01.548Z,89.66
2023-03-26T06:09:50.125Z,89.46
2023-03-26T06:10:50.118Z,89.87
2023-03-26T06:11:50.085Z,90.38
2023-03-26T06:12:50.827Z,90.59
2023-03-26T06:13:50.089Z,90.80
2023-03-26T06:14:50.050Z,90.48
2023-03-26T06:15:50.141Z,90.28
2023-03-26T06:16:50.041Z,90.55
2023-03-26T06:17:50.069Z,89.93
2023-03-26T06:18:50.045Z,90.24
2023-03-26T06:19:50.030Z,88.90
2023-03-26T06:20:49.981Z,88.08
2023-03-26T06:21:50.042Z,88.08
2023-03-26T06:22:49.980Z,88.49
2023-03-26T06:23:50.102Z,88.39
2023-03-26T06:24:49.997Z,88.39
2023-03-26T06:25:49.976Z,88.49
2023-03-26T06:26:49.971Z,88.39
2023-03-26T06:27:49.914Z,88.59
2023-03-26T06:28:49.907Z,88.59
2023-03-26T06:29:49.907Z,88.59
2023-03-26T06:30:50.032Z,89.01
2023-03-26T06:31:49.886Z,88.90
2023-03-26T06:32:49.910Z,89.83
2023-03-26T06:33:49.902Z,89.83
2023-03-26T06:34:49.960Z,89.52
2023-03-26T06:35:49.950Z,89.42
2023-03-26T06:36:49.869Z,89.72
2023-03-26T06:37:49.867Z,89.62
2023-03-26T06:38:49.883Z,89.42
2023-03-26T06:39:49.832Z,89.72
2023-03-26T06:40:49.798Z,90.24
2023-03-26T06:41:49.786Z,90.65
2023-03-26T06:43:09.218Z,90.75
2023-03-26T06:43:49.816Z,90.81
2023-03-26T06:44:49.829Z,90.40
2023-03-26T06:45:49.742Z,89.89
2023-03-26T06:46:49.775Z,90.14
2023-03-26T06:47:49.811Z,90.75
2023-03-26T06:48:49.717Z,90.85
2023-03-26T06:49:49.738Z,90.95
2023-03-26T06:50:49.759Z,91.16
2023-03-26T06:51:49.683Z,91.41
2023-03-26T06:52:49.682Z,91.72
2023-03-26T06:53:49.653Z,92.13
2023-03-26T06:54:49.663Z,93.46
2023-03-26T06:55:49.639Z,93.57
2023-03-26T06:56:49.682Z,92.64
2023-03-26T06:57:49.655Z,92.44
2023-03-26T06:58:49.598Z,92.95
2023-03-26T06:59:49.596Z,92.95
2023-03-26T07:00:49.629Z,93.57
2023-03-26T07:01:49.601Z,93.87
2023-03-26T07:02:49.632Z,94.08
2023-03-26T07:03:49.663Z,92.95
2023-03-26T07:04:49.548Z,92.54
2023-03-26T07:05:49.575Z,93.77
2023-03-26T07:06:49.534Z,93.57
2023-03-26T07:07:49.687Z,94.49
2023-03-26T07:08:49.727Z,94.08
2023-03-26T07:09:49.519Z,93.98
2023-03-26T07:10:49.497Z,93.77
2023-03-26T07:11:49.494Z,93.67
2023-03-26T07:12:49.472Z,93.57
2023-03-26T07:13:49.461Z,93.57
2023-03-26T07:14:49.473Z,93.16
2023-03-26T07:15:49.491Z,93.05
2023-03-26T07:16:49.464Z,93.05
2023-03-26T07:17:49.433Z,94.08
2023-03-26T07:18:49.469Z,93.77
2023-03-26T07:19:49.452Z,94.18
2023-03-26T07:20:49.403Z,94.49
2023-03-26T07:21:49.372Z,93.77
2023-03-26T07:22:49.376Z,93.36
2023-03-26T07:23:49.386Z,93.26
2023-03-26T07:24:49.379Z,94.04
2023-03-26T07:25:49.404Z,94.34
2023-03-26T07:26:49.326Z,93.63
2023-03-26T07:27:50.059Z,93.32
2023-03-26T07:29:04.920Z,93.63
2023-03-26T07:29:49.318Z,93.93
2023-03-26T07:30:49.317Z,93.63
2023-03-26T07:31:49.292Z,94.04
2023-03-26T07:32:49.335Z,94.14
2023-03-26T07:33:49.270Z,94.24
2023-03-26T07:34:49.271Z,94.04
2023-03-26T07:35:49.326Z,94.24
2023-03-26T07:36:49.220Z,94.04
2023-03-26T07:37:49.230Z,93.83
2023-03-26T07:38:49.257Z,94.04
2023-03-26T07:39:49.182Z,93.93
2023-03-26T07:40:49.293Z,93.73
2023-03-26T07:41:49.186Z,93.32
2023-03-26T07:42:49.172Z,93.12
2023-03-26T07:43:49.156Z,93.32
2023-03-26T07:44:49.132Z,93.63
2023-03-26T07:45:49.182Z,93.63
2023-03-26T07:46:49.157Z,93.52
2023-03-26T07:47:49.125Z,93.63
2023-03-26T07:48:49.114Z,94.04
2023-03-26T07:49:49.082Z,94.34
2023-03-26T07:50:49.113Z,94.14
2023-03-26T07:51:49.198Z,94.14
2023-03-26T07:52:49.063Z,94.18
2023-03-26T07:53:49.134Z,93.98
2023-03-26T07:54:49.102Z,93.46
2023-03-26T07:55:49.043Z,93.36
2023-03-26T07:56:49.237Z,93.87
2023-03-26T07:57:49.038Z,94.29
2023-03-26T07:58:49.120Z,94.49
2023-03-26T07:59:49.000Z,94.59
2023-03-26T08:00:49.001Z,94.29
2023-03-26T08:01:49.004Z,94.18
2023-03-26T08:02:49.186Z,94.90
2023-03-26T08:03:48.999Z,95.01
2023-03-26T08:04:49.088Z,95.21
2023-03-26T08:05:48.981Z,94.90
2023-03-26T08:06:48.907Z,95.10
2023-03-26T08:07:48.936Z,94.70
2023-03-26T08:08:48.915Z,95.01
2023-03-26T08:09:48.867Z,94.96
2023-03-26T08:10:48.873Z,94.76
2023-03-26T08:11:48.886Z,94.55
2023-03-26T08:12:48.849Z,94.65
2023-03-26T08:13:48.895Z,94.55
2023-03-26T08:14:48.868Z,95.17
2023-03-26T08:15:48.849Z,95.17
2023-03-26T08:16:48.893Z,95.17
2023-03-26T08:17:48.899Z,94.76
2023-03-26T08:18:48.775Z,94.55
2023-03-26T08:19:48.782Z,94.14
2023-03-26T08:20:48.819Z,94.34
2023-03-26T08:21:48.792Z,94.85
2023-03-26T08:22:48.748Z,94.55
2023-03-26T08:23:50.550Z,94.65
2023-03-26T08:24:48.868Z,94.96
2023-03-26T08:25:48.734Z,94.96
2023-03-26T08:26:48.764Z,94.96
2023-03-26T08:27:48.690Z,94.96
2023-03-26T08:28:48.740Z,95.17
2023-03-26T08:29:48.688Z,94.55
2023-03-26T08:30:48.757Z,94.34
2023-03-26T08:31:48.668Z,94.04
2023-03-26T08:32:48.718Z,94.34
2023-03-26T08:33:48.675Z,94.55
2023-03-26T08:34:48.643Z,94.85
2023-03-26T08:35:48.633Z,95.17
2023-03-26T08:36:48.617Z,95.37
2023-03-26T08:37:48.583Z,94.55
2023-03-26T08:38:48.593Z,94.14
2023-03-26T08:39:48.608Z,94.04
2023-03-26T08:40:48.563Z,93.73
2023-03-26T08:41:48.536Z,93.93
2023-03-26T08:42:48.574Z,94.04
2023-03-26T08:43:48.534Z,94.04
2023-03-26T08:44:48.544Z,94.39
2023-03-26T08:45:48.517Z,94.65
2023-03-26T08:46:48.520Z,94.76
2023-03-26T08:47:48.538Z,94.76
2023-03-26T08:48:48.519Z,95.27
2023-03-26T08:49:48.482Z,95.98
2023-03-26T08:50:48.472Z,96.30
2023-03-26T08:51:48.492Z,95.78
2023-03-26T08:52:48.489Z,94.85
2023-03-26T08:53:48.459Z,94.45
2023-03-26T08:54:48.505Z,94.55
2023-03-26T08:55:48.408Z,94.96
2023-03-26T08:56:48.503Z,94.96
2023-03-26T08:57:48.454Z,94.34
2023-03-26T08:58:48.386Z,94.65
2023-03-26T08:59:48.392Z,94.76
2023-03-26T09:00:48.390Z,94.45
2023-03-26T09:01:48.468Z,94.55
2023-03-26T09:02:48.431Z,94.76
2023-03-26T09:03:48.462Z,94.55
2023-03-26T09:04:48.320Z,94.55
2023-03-26T09:05:48.396Z,94.55
2023-03-26T09:06:48.337Z,94.45
2023-03-26T09:07:48.315Z,94.65
2023-03-26T09:08:54.417Z,94.34
2023-03-26T09:09:48.774Z,94.24
2023-03-26T09:10:48.277Z,94.34
2023-03-26T09:11:48.246Z,94.40
2023-03-26T09:12:48.270Z,93.17
2023-03-26T09:13:48.272Z,93.63
2023-03-26T09:14:48.245Z,93.89
2023-03-26T09:15:48.308Z,94.04
2023-03-26T09:16:48.242Z,94.20
2023-03-26T09:17:48.283Z,94.20
2023-03-26T09:18:48.717Z,93.99
2023-03-26T09:19:48.198Z,93.68
2023-03-26T09:20:48.183Z,93.33
2023-03-26T09:21:48.176Z,92.61
2023-03-26T09:22:48.264Z,91.38
2023-03-26T09:23:48.450Z,91.49
2023-03-26T09:24:48.136Z,91.28
2023-03-26T09:25:48.205Z,91.49
2023-03-26T09:26:48.137Z,91.80
2023-03-26T09:27:48.069Z,91.49
2023-03-26T09:28:48.076Z,91.55
2023-03-26T09:29:48.075Z,91.96
2023-03-26T09:30:48.080Z,91.24
2023-03-26T09:31:48.059Z,91.09
2023-03-26T09:32:48.153Z,90.48
2023-03-26T09:33:48.008Z,90.69
2023-03-26T09:34:48.076Z,90.89
2023-03-26T09:35:48.060Z,91.20
2023-03-26T09:36:48.123Z,91.61
2023-03-26T09:37:57.453Z,89.66
2023-03-26T09:38:47.990Z,89.45
2023-03-26T09:39:47.959Z,89.36
2023-03-26T09:40:48.019Z,89.45
2023-03-26T09:41:47.946Z,89.76
2023-03-26T09:42:48.002Z,90.42
2023-03-26T09:43:47.971Z,90.83
2023-03-26T09:44:48.662Z,90.73
2023-03-26T09:45:47.937Z,90.83
2023-03-26T09:46:47.940Z,90.89
2023-03-26T09:47:47.955Z,90.89
2023-03-26T09:48:47.866Z,90.37
2023-03-26T09:49:47.854Z,89.97
2023-03-26T09:50:47.885Z,89.45
2023-03-26T09:51:47.823Z,89.76
2023-03-26T09:52:47.855Z,88.90
2023-03-26T09:53:47.825Z,87.77
2023-03-26T09:54:47.826Z,87.37
2023-03-26T09:55:47.877Z,87.47
2023-03-26T09:56:47.844Z,87.47
2023-03-26T09:57:47.861Z,87.57
2023-03-26T09:58:47.770Z,87.84
2023-03-26T09:59:47.792Z,86.91
2023-03-26T10:00:47.789Z,85.64
2023-03-26T10:01:48.038Z,85.55
2023-03-26T10:02:47.909Z,86.02
2023-03-26T10:03:47.964Z,86.02
2023-03-26T10:04:47.872Z,86.43
2023-03-26T10:05:47.722Z,86.29
2023-03-26T10:06:47.737Z,85.77
2023-03-26T10:07:48.613Z,85.12
2023-03-26T10:08:47.695Z,84.09
2023-03-26T10:09:47.740Z,82.87
2023-03-26T10:10:47.738Z,82.46
2023-03-26T10:11:47.686Z,81.95
2023-03-26T10:12:47.637Z,82.36
2023-03-26T10:13:47.869Z,83.07
2023-03-26T10:14:47.872Z,83.32
2023-03-26T10:15:47.636Z,83.69
2023-03-26T10:16:47.616Z,83.32
2023-03-26T10:17:47.734Z,83.07
2023-03-26T10:18:47.590Z,82.67
2023-03-26T10:19:47.612Z,82.56
2023-03-26T10:20:47.632Z,83.07
2023-03-26T10:21:47.660Z,83.62
2023-03-26T10:22:47.594Z,84.24
2023-03-26T10:23:47.523Z,84.85
2023-03-26T10:24:47.515Z,85.36
2023-03-26T10:25:47.533Z,85.32
2023-03-26T10:27:09.763Z,85.42
2023-03-26T10:27:47.477Z,85.63
2023-03-26T10:28:47.491Z,85.63
2023-03-26T10:29:47.584Z,85.49
2023-03-26T10:30:47.531Z,85.89
2023-03-26T10:31:47.457Z,85.79
2023-03-26T10:32:47.500Z,85.49
2023-03-26T10:33:47.416Z,85.38
2023-03-26T10:34:47.456Z,85.12
2023-03-26T10:35:47.435Z,85.32
2023-03-26T10:36:47.489Z,85.63
2023-03-26T10:37:47.378Z,85.53
2023-03-26T10:38:47.374Z,85.42
2023-03-26T10:39:47.401Z,85.73
2023-03-26T10:40:47.342Z,84.88
2023-03-26T10:41:47.348Z,84.77
2023-03-26T10:42:47.322Z,84.81
2023-03-26T10:43:57.825Z,83.38
2023-03-26T10:44:47.335Z,83.89
2023-03-26T10:45:47.396Z,84.91
2023-03-26T10:46:47.411Z,84.20
2023-03-26T10:47:47.400Z,84.34
2023-03-26T10:48:47.463Z,84.95
2023-03-26T10:49:47.262Z,84.58
2023-03-26T10:50:47.253Z,84.58
2023-03-26T10:51:47.245Z,86.12
2023-03-26T10:52:47.284Z,86.73
2023-03-26T10:53:47.238Z,88.06
2023-03-26T10:54:47.228Z,88.47
2023-03-26T10:55:48.155Z,89.29
2023-03-26T10:56:47.232Z,89.59
2023-03-26T10:57:47.306Z,89.59
2023-03-26T10:58:49.698Z,90.92
2023-03-26T10:59:47.176Z,90.06
2023-03-26T11:00:47.164Z,90.47
2023-03-26T11:01:47.258Z,90.94
2023-03-26T11:02:47.244Z,90.94
2023-03-26T11:03:47.170Z,89.67
2023-03-26T11:04:47.159Z,88.85
2023-03-26T11:05:47.201Z,88.14
2023-03-26T11:06:47.101Z,89.02
2023-03-26T11:07:47.164Z,87.70
2023-03-26T11:08:47.084Z,87.04
2023-03-26T11:09:47.089Z,86.53
2023-03-26T11:10:47.037Z,85.92
2023-03-26T11:11:47.058Z,86.73
2023-03-26T11:12:47.022Z,85.10
2023-03-26T11:13:47.024Z,83.78
2023-03-26T11:14:47.014Z,84.18
2023-03-26T11:15:47.075Z,84.90
2023-03-26T11:16:46.979Z,82.86
2023-03-26T11:17:47.116Z,83.78
2023-03-26T11:18:46.978Z,82.96
2023-03-26T11:19:46.966Z,84.39
2023-03-26T11:20:47.015Z,83.73
2023-03-26T11:21:46.945Z,84.14
2023-03-26T11:22:46.916Z,83.90
2023-03-26T11:23:46.938Z,84.00
2023-03-26T11:24:46.943Z,83.29
2023-03-26T11:25:46.921Z,81.86
2023-03-26T11:26:46.898Z,81.96
2023-03-26T11:27:46.905Z,82.27
2023-03-26T11:29:03.098Z,82.51
2023-03-26T11:29:46.853Z,82.21
2023-03-26T11:30:46.884Z,83.33
2023-03-26T11:31:46.958Z,83.73
2023-03-26T11:32:46.875Z,84.14
2023-03-26T11:33:47.955Z,84.55
2023-03-26T11:34:46.866Z,83.02
2023-03-26T11:35:46.858Z,81.70
2023-03-26T11:36:47.280Z,81.18
2023-03-26T11:37:46.772Z,80.20
2023-03-26T11:38:46.782Z,81.63
2023-03-26T11:39:46.780Z,82.89
2023-03-26T11:40:46.810Z,83.10
2023-03-26T11:41:46.750Z,83.95
2023-03-26T11:42:46.727Z,81.40
2023-03-26T11:43:46.725Z,82.97
2023-03-26T11:44:46.824Z,84.91
2023-03-26T11:45:46.733Z,84.30
2023-03-26T11:46:46.789Z,85.77
2023-03-26T11:47:46.746Z,87.41
2023-03-26T11:48:46.662Z,87.45
2023-03-26T11:49:46.659Z,89.18
2023-03-26T11:50:46.661Z,88.26
2023-03-26T11:51:46.771Z,88.68
2023-03-26T11:52:47.111Z,90.00
2023-03-26T11:53:46.637Z,90.82
2023-03-26T11:54:46.669Z,90.41
2023-03-26T11:55:46.603Z,88.78
2023-03-26T11:57:04.558Z,88.02
2023-03-26T11:57:46.593Z,89.35
2023-03-26T11:58:46.553Z,88.49
2023-03-26T11:59:56.552Z,88.49
2023-03-26T12:00:46.558Z,86.14
2023-03-26T12:01:46.612Z,85.32
2023-03-26T12:02:46.576Z,87.37
2023-03-26T12:03:46.537Z,85.79
2023-03-26T12:04:46.575Z,85.38
2023-03-26T12:05:46.500Z,86.10
2023-03-26T12:06:46.636Z,86.67
2023-03-26T12:07:46.520Z,86.33
2023-03-26T12:08:46.470Z,86.02
2023-03-26T12:09:46.476Z,87.14
2023-03-26T12:10:46.434Z,85.77
2023-03-26T12:11:46.448Z,85.37
2023-03-26T12:12:46.503Z,82.86
2023-03-26T12:13:46.419Z,83.37
2023-03-26T12:14:46.589Z,83.67
2023-03-26T12:15:46.417Z,81.77
2023-03-26T12:16:46.437Z,83.00
2023-03-26T12:17:46.408Z,84.33
2023-03-26T12:18:46.390Z,84.12
2023-03-26T12:19:46.350Z,86.12
2023-03-26T12:20:46.373Z,85.65
2023-03-26T12:21:46.369Z,85.82
2023-03-26T12:22:47.790Z,85.30
2023-03-26T12:23:46.318Z,83.47
2023-03-26T12:24:46.865Z,83.16
2023-03-26T12:25:46.291Z,83.16
2023-03-26T12:26:46.315Z,81.02
2023-03-26T12:27:46.296Z,83.16
2023-03-26T12:28:46.244Z,82.65
2023-03-26T12:29:46.293Z,83.12
2023-03-26T12:30:46.233Z,83.53
2023-03-26T12:31:46.424Z,82.88
2023-03-26T12:32:47.050Z,82.54
2023-03-26T12:33:46.752Z,80.40
2023-03-26T12:34:46.222Z,82.23
2023-03-26T12:35:46.221Z,81.11
2023-03-26T12:36:46.163Z,80.19
2023-03-26T12:37:46.209Z,77.64
2023-03-26T12:38:46.178Z,78.36
2023-03-26T12:40:10.129Z,78.16
2023-03-26T12:40:46.254Z,73.74
2023-03-26T12:43:40.555Z,72.11
2023-03-26T12:45:02.435Z,71.70
2023-03-26T12:45:07.889Z,71.47
2023-03-26T12:47:56.377Z,71.43
2023-03-26T12:48:07.177Z,70.07
2023-03-26T12:48:12.814Z,67.94
2023-03-26T12:49:12.982Z,67.02
2023-03-26T12:50:12.677Z,65.19
2023-03-26T12:51:12.735Z,65.73
2023-03-26T12:52:12.663Z,66.75
2023-03-26T12:53:12.681Z,67.05
2023-03-26T12:54:12.634Z,67.05